Time;durP1;ratioP1;P1;durP2;ratioP2;P2;SDS_P1;SDS_P2;PMS_P1;PMS_P2;Temp;Humidity;BMP_temperature;BMP_pressure;BME280_temperature;BME280_humidity;BME280_pressure;Samples;Min_cycle;Max_cycle;Signal;HPM_P1;HPM_P2
2022/03/12 00:01:18;;;;;;;8.33;5.77;;;6.70;70.20;;;;;;5025169;28;20224;-69
2022/03/12 00:03:46;;;;;;;7.97;5.97;;;6.70;70.50;;;;;;5058775;28;20217;-69
2022/03/12 00:06:12;;;;;;;14.93;6.00;;;6.70;70.70;;;;;;5036446;28;20224;-69
2022/03/12 00:08:46;;;;;;;10.53;5.40;;;6.70;71.10;;;;;;5042572;28;20532;-68
2022/03/12 00:11:27;;;;;;;10.13;5.60;;;6.60;71.10;;;;;;5044453;28;20457;-69
2022/03/12 00:13:54;;;;;;;8.17;5.50;;;6.70;70.80;;;;;;5038360;28;20446;-68
2022/03/12 00:16:26;;;;;;;6.07;4.80;;;6.60;70.60;;;;;;5032614;28;20846;-69
2022/03/12 00:18:58;;;;;;;13.63;6.40;;;6.60;71.00;;;;;;5035156;28;20462;-67
2022/03/12 00:21:27;;;;;;;11.00;5.73;;;6.60;71.40;;;;;;5048132;28;20883;-68
2022/03/12 00:23:58;;;;;;;9.77;5.40;;;6.60;70.80;;;;;;5041433;28;20984;-69
2022/03/12 00:26:24;;;;;;;5.60;4.70;;;6.60;71.60;;;;;;5039075;28;20446;-69
2022/03/12 00:28:52;;;;;;;10.20;6.50;;;6.60;71.60;;;;;;5045450;28;20482;-68
2022/03/12 00:31:18;;;;;;;7.60;5.13;;;6.60;71.40;;;;;;5042590;28;20443;-71
2022/03/12 00:33:44;;;;;;;6.80;5.00;;;6.60;71.60;;;;;;5027237;28;20500;-69
2022/03/12 00:36:11;;;;;;;8.23;5.23;;;6.60;71.60;;;;;;5042491;28;20951;-69
2022/03/12 00:38:37;;;;;;;8.97;5.80;;;6.50;71.70;;;;;;5043358;28;20717;-70
2022/03/12 00:41:05;;;;;;;7.40;5.53;;;6.50;71.70;;;;;;5060460;28;20470;-70
2022/03/12 00:43:31;;;;;;;7.37;5.10;;;6.50;71.40;;;;;;5045082;28;20667;-73
2022/03/12 00:45:57;;;;;;;10.90;6.20;;;6.50;71.50;;;;;;5021879;28;20534;-68
2022/03/12 00:48:23;;;;;;;8.00;5.20;;;6.50;72.30;;;;;;5048738;28;20259;-68
2022/03/12 00:50:49;;;;;;;8.63;5.80;;;6.40;72.40;;;;;;5041020;28;20479;-72
2022/03/12 00:53:15;;;;;;;7.80;5.43;;;6.40;72.50;;;;;;5052036;28;20928;-69
2022/03/12 00:55:41;;;;;;;6.33;4.77;;;6.40;72.60;;;;;;5045442;28;20300;-68
2022/03/12 00:58:08;;;;;;;10.43;5.10;;;6.50;72.70;;;;;;5025323;28;20319;-68
2022/03/12 01:00:34;;;;;;;7.63;5.17;;;6.50;73.00;;;;;;5032904;28;20861;-67
2022/03/12 01:03:01;;;;;;;8.90;4.83;;;6.40;72.50;;;;;;5024223;28;20481;-68
2022/03/12 01:05:49;;;;;;;8.53;4.60;;;6.50;72.70;;;;;;5027056;28;20478;-68
2022/03/12 01:08:16;;;;;;;8.07;5.30;;;6.50;72.80;;;;;;5060099;28;20489;-69
2022/03/12 01:10:43;;;;;;;9.47;5.40;;;6.50;72.70;;;;;;5040337;28;20979;-68
2022/03/12 01:13:10;;;;;;;6.60;4.87;;;6.50;73.30;;;;;;5022711;28;20448;-68
2022/03/12 01:15:37;;;;;;;8.63;4.70;;;6.50;73.10;;;;;;5022802;28;20459;-70
2022/03/12 01:18:03;;;;;;;10.47;5.60;;;6.50;72.70;;;;;;5030107;28;20495;-69
2022/03/12 01:20:29;;;;;;;7.70;5.03;;;6.50;72.70;;;;;;5039787;28;20471;-72
2022/03/12 01:22:55;;;;;;;6.50;4.73;;;6.40;72.80;;;;;;5021537;28;20228;-68
2022/03/12 01:25:20;;;;;;;7.70;5.53;;;6.40;72.60;;;;;;5050554;28;20228;-69
2022/03/12 01:27:46;;;;;;;8.73;5.70;;;6.40;72.40;;;;;;5032345;28;20468;-69
2022/03/12 01:30:12;;;;;;;13.27;6.30;;;6.40;72.70;;;;;;5016719;28;20254;-68
2022/03/12 01:32:38;;;;;;;7.83;4.50;;;6.30;73.60;;;;;;5046586;28;20525;-68
2022/03/12 01:35:05;;;;;;;8.80;5.60;;;6.30;73.50;;;;;;5033433;28;20459;-69
2022/03/12 01:37:32;;;;;;;11.57;5.20;;;6.40;73.00;;;;;;5025561;28;20233;-68
2022/03/12 01:40:00;;;;;;;7.37;5.27;;;6.30;72.90;;;;;;5030714;28;20467;-71
2022/03/12 01:42:27;;;;;;;6.53;5.37;;;6.30;73.20;;;;;;5038871;28;20470;-69
2022/03/12 01:44:53;;;;;;;11.07;5.00;;;6.30;73.30;;;;;;5047028;28;20273;-68
2022/03/12 01:47:20;;;;;;;6.40;5.33;;;6.30;72.80;;;;;;5014447;28;20468;-70
2022/03/12 01:49:48;;;;;;;8.87;5.50;;;6.30;72.90;;;;;;5027621;28;20459;-69
2022/03/12 01:52:14;;;;;;;9.93;5.47;;;6.30;73.10;;;;;;5040697;28;20452;-68
2022/03/12 01:54:43;;;;;;;7.40;5.03;;;6.30;73.30;;;;;;5012912;28;20977;-70
2022/03/12 01:57:11;;;;;;;8.77;5.10;;;6.30;73.30;;;;;;5025831;28;20299;-68
2022/03/12 01:59:37;;;;;;;8.37;4.93;;;6.30;73.60;;;;;;5047613;28;20459;-69
2022/03/12 02:02:08;;;;;;;7.37;4.67;;;6.30;73.60;;;;;;5034363;28;20469;-68
2022/03/12 02:04:36;;;;;;;7.30;5.10;;;6.30;73.40;;;;;;5030539;28;20307;-71
2022/03/12 02:07:02;;;;;;;7.47;5.23;;;6.30;73.30;;;;;;5029671;28;20599;-69
2022/03/12 02:09:28;;;;;;;7.00;5.30;;;6.30;73.40;;;;;;5028750;28;21050;-71
2022/03/12 02:11:54;;;;;;;10.97;5.60;;;6.30;73.90;;;;;;5035878;28;20224;-69
2022/03/12 02:14:25;;;;;;;6.03;4.20;;;6.30;73.90;;;;;;5028501;28;20212;-69
2022/03/12 02:17:01;;;;;;;6.93;4.10;;;6.30;74.10;;;;;;5035385;28;20561;-70
2022/03/12 02:19:31;;;;;;;8.17;4.90;;;6.30;73.40;;;;;;5033953;28;20478;-70
2022/03/12 02:22:05;;;;;;;6.47;4.83;;;6.30;73.40;;;;;;5024581;28;20550;-69
2022/03/12 02:24:32;;;;;;;9.70;4.47;;;6.30;73.80;;;;;;5045859;28;20535;-69
2022/03/12 02:27:00;;;;;;;8.37;5.13;;;6.30;74.10;;;;;;5033527;28;20554;-69
2022/03/12 02:29:26;;;;;;;8.67;5.50;;;6.20;73.60;;;;;;5033717;28;20985;-69
2022/03/12 02:31:58;;;;;;;7.37;5.50;;;6.20;73.40;;;;;;5024217;28;20974;-70
2022/03/12 02:34:32;;;;;;;8.30;5.07;;;6.20;73.50;;;;;;5045035;28;21027;-69
2022/03/12 02:36:58;;;;;;;9.80;5.93;;;6.20;73.80;;;;;;5035602;28;20475;-69
2022/03/12 02:39:27;;;;;;;6.67;4.53;;;6.20;73.90;;;;;;5037215;28;20498;-69
2022/03/12 02:42:00;;;;;;;8.70;5.30;;;6.20;75.00;;;;;;5032934;28;20244;-69
2022/03/12 02:44:28;;;;;;;6.67;4.57;;;6.20;74.20;;;;;;5046130;28;20454;-68
2022/03/12 02:47:20;;;;;;;7.03;5.00;;;6.20;73.90;;;;;;5044889;28;20562;-69
2022/03/12 02:49:58;;;;;;;8.03;5.00;;;6.20;73.80;;;;;;5028849;28;20466;-71
2022/03/12 02:52:27;;;;;;;8.83;5.13;;;6.10;73.80;;;;;;5035627;28;20462;-70
2022/03/12 02:54:57;;;;;;;8.77;4.87;;;6.10;73.90;;;;;;5022460;28;20535;-71
2022/03/12 02:57:25;;;;;;;6.93;4.47;;;6.10;74.40;;;;;;5039392;28;20482;-69
2022/03/12 02:59:53;;;;;;;6.73;4.97;;;6.10;74.00;;;;;;5036297;28;20448;-71
2022/03/12 03:02:25;;;;;;;8.50;4.57;;;6.20;74.70;;;;;;5032128;28;20451;-69
2022/03/12 03:04:51;;;;;;;10.40;4.90;;;6.20;74.60;;;;;;5028074;28;20556;-69
2022/03/12 03:07:18;;;;;;;4.97;4.30;;;6.10;74.30;;;;;;5038862;28;20895;-69
2022/03/12 03:09:44;;;;;;;5.63;4.67;;;6.10;73.80;;;;;;5032278;28;20452;-69
2022/03/12 03:12:13;;;;;;;7.23;4.40;;;6.10;73.90;;;;;;5027316;28;20321;-69
2022/03/12 03:14:50;;;;;;;7.10;4.70;;;6.10;74.60;;;;;;5040925;28;20537;-69
2022/03/12 03:17:16;;;;;;;7.33;5.07;;;6.00;73.10;;;;;;5037126;28;20447;-70
2022/03/12 03:19:44;;;;;;;9.13;5.40;;;6.00;74.20;;;;;;5033841;28;20542;-67
2022/03/12 03:22:12;;;;;;;7.87;4.53;;;6.00;74.70;;;;;;5041119;28;20456;-68
2022/03/12 03:24:37;;;;;;;5.83;4.37;;;6.00;74.40;;;;;;5029733;28;20455;-69
2022/03/12 03:27:04;;;;;;;7.00;4.57;;;6.00;74.30;;;;;;5043023;28;20470;-69
2022/03/12 03:29:32;;;;;;;10.10;5.13;;;6.00;74.30;;;;;;5036824;28;20446;-69
2022/03/12 03:32:02;;;;;;;6.20;4.27;;;6.00;74.50;;;;;;5040124;28;20446;-69
2022/03/12 03:34:31;;;;;;;7.97;5.00;;;6.00;74.40;;;;;;5034610;28;20443;-70
2022/03/12 03:36:57;;;;;;;11.33;4.40;;;6.00;74.20;;;;;;5036859;28;20530;-70
2022/03/12 03:39:23;;;;;;;6.73;4.60;;;5.90;74.70;;;;;;5027763;28;20459;-68
2022/03/12 03:41:49;;;;;;;9.60;5.57;;;5.90;74.60;;;;;;5036396;28;21000;-69
2022/03/12 03:44:26;;;;;;;7.33;4.40;;;5.90;74.50;;;;;;5022512;28;20228;-69
2022/03/12 03:46:52;;;;;;;6.73;4.40;;;5.90;74.20;;;;;;5022386;28;20482;-68
2022/03/12 03:49:17;;;;;;;8.03;4.43;;;5.90;73.90;;;;;;5018694;28;20452;-73
2022/03/12 03:51:44;;;;;;;5.73;3.90;;;5.90;74.70;;;;;;5010016;28;20221;-70
2022/03/12 03:54:11;;;;;;;5.07;3.97;;;5.90;74.40;;;;;;5036073;28;20243;-70
2022/03/12 03:56:37;;;;;;;8.80;4.60;;;5.90;73.90;;;;;;5033517;28;20436;-69
2022/03/12 03:59:04;;;;;;;6.97;4.23;;;5.90;74.40;;;;;;5042411;28;20807;-69
2022/03/12 04:01:30;;;;;;;7.57;4.47;;;5.80;74.00;;;;;;5022034;28;20455;-70
2022/03/12 04:03:58;;;;;;;8.50;4.40;;;5.80;73.90;;;;;;5029573;28;20443;-72
2022/03/12 04:06:25;;;;;;;10.00;5.30;;;5.80;74.60;;;;;;5031510;28;20472;-69
2022/03/12 04:08:52;;;;;;;9.97;5.63;;;5.80;74.40;;;;;;5046826;28;20271;-72
2022/03/12 04:11:18;;;;;;;8.53;5.40;;;5.80;74.10;;;;;;5032029;28;20470;-69
2022/03/12 04:13:45;;;;;;;7.20;4.57;;;5.80;74.20;;;;;;5031918;28;20451;-68
2022/03/12 04:16:13;;;;;;;9.27;4.93;;;5.80;74.10;;;;;;5025353;28;20474;-70
2022/03/12 04:18:42;;;;;;;7.37;4.97;;;5.80;74.40;;;;;;5029444;28;20451;-69
2022/03/12 04:21:08;;;;;;;7.70;4.87;;;5.70;74.20;;;;;;5040271;28;20574;-71
2022/03/12 04:23:35;;;;;;;5.67;4.70;;;5.70;74.20;;;;;;5030449;28;20456;-68
2022/03/12 04:26:00;;;;;;;9.20;4.77;;;5.70;74.00;;;;;;5047028;28;20512;-69
2022/03/12 04:28:32;;;;;;;8.50;4.37;;;5.60;74.60;;;;;;5039519;28;20471;-69
2022/03/12 04:31:03;;;;;;;8.17;4.40;;;5.60;74.40;;;;;;5024376;28;20217;-69
2022/03/12 04:33:29;;;;;;;8.37;5.10;;;5.60;74.40;;;;;;5034932;28;20824;-68
2022/03/12 04:35:57;;;;;;;6.50;4.00;;;5.60;74.40;;;;;;5033794;28;20467;-72
2022/03/12 04:38:23;;;;;;;10.50;5.13;;;5.70;75.70;;;;;;5050535;28;20542;-70
2022/03/12 04:40:49;;;;;;;8.10;5.10;;;5.60;75.10;;;;;;5029410;28;20455;-68
2022/03/12 04:43:18;;;;;;;8.73;4.80;;;5.60;74.60;;;;;;5030322;28;20463;-68
2022/03/12 04:45:46;;;;;;;10.87;4.93;;;5.60;74.90;;;;;;5025551;28;21070;-70
2022/03/12 04:48:17;;;;;;;7.53;5.23;;;5.60;74.90;;;;;;5035138;28;20506;-69
2022/03/12 04:50:43;;;;;;;6.90;4.80;;;5.60;75.00;;;;;;5038219;28;20474;-70
2022/03/12 04:53:10;;;;;;;7.60;4.77;;;5.60;75.00;;;;;;5036043;28;20906;-69
2022/03/12 04:55:39;;;;;;;8.40;4.90;;;5.60;74.90;;;;;;5020743;28;20448;-69
2022/03/12 04:58:07;;;;;;;8.50;5.20;;;5.60;74.80;;;;;;5037432;28;20487;-69
2022/03/12 05:00:36;;;;;;;5.60;4.17;;;5.60;75.50;;;;;;5030582;28;20455;-69
2022/03/12 05:03:20;;;;;;;8.17;5.60;;;5.60;75.00;;;;;;5033257;28;20529;-69
2022/03/12 05:05:48;;;;;;;7.30;4.40;;;5.60;74.90;;;;;;5033842;28;20462;-70
2022/03/12 05:08:17;;;;;;;11.70;4.63;;;5.60;74.90;;;;;;5029072;28;20456;-70
2022/03/12 05:10:45;;;;;;;6.50;4.80;;;5.60;75.40;;;;;;5050343;28;20569;-68
2022/03/12 05:13:12;;;;;;;7.20;4.60;;;5.60;74.90;;;;;;5031424;28;20959;-69
2022/03/12 05:15:38;;;;;;;10.00;4.50;;;5.60;75.10;;;;;;5029219;28;20546;-70
2022/03/12 05:18:12;;;;;;;7.77;4.63;;;5.60;74.80;;;;;;5035718;28;20483;-71
2022/03/12 05:20:43;;;;;;;7.47;4.47;;;5.50;75.30;;;;;;5025300;28;20468;-71
2022/03/12 05:23:09;;;;;;;5.20;4.70;;;5.50;75.50;;;;;;5042178;28;20463;-70
2022/03/12 05:25:42;;;;;;;8.90;4.87;;;5.50;75.30;;;;;;5033737;28;20510;-70
2022/03/12 05:28:20;;;;;;;5.20;4.33;;;5.50;75.80;;;;;;5027325;28;20530;-68
2022/03/12 05:30:47;;;;;;;7.87;4.93;;;5.50;75.30;;;;;;5036084;28;20478;-70
2022/03/12 05:33:14;;;;;;;10.70;5.00;;;5.50;75.30;;;;;;5010432;28;20859;-69
2022/03/12 05:35:42;;;;;;;6.27;4.37;;;5.50;75.20;;;;;;5037771;28;20486;-68
2022/03/12 05:38:09;;;;;;;7.30;4.97;;;5.50;75.40;;;;;;5040033;28;20530;-69
2022/03/12 05:40:38;;;;;;;9.97;5.40;;;5.50;75.30;;;;;;5039516;28;21098;-70
2022/03/12 05:43:07;;;;;;;5.77;4.10;;;5.50;75.00;;;;;;5029686;28;20463;-69
2022/03/12 05:45:33;;;;;;;5.77;4.33;;;5.50;74.70;;;;;;5030799;28;20542;-69
2022/03/12 05:47:59;;;;;;;11.70;4.80;;;5.50;74.70;;;;;;5039326;28;20470;-70
2022/03/12 05:50:26;;;;;;;6.87;4.57;;;5.50;74.60;;;;;;5016075;28;20490;-69
2022/03/12 05:52:52;;;;;;;10.10;5.03;;;5.50;74.80;;;;;;5036397;28;20253;-69
2022/03/12 05:55:20;;;;;;;7.47;4.43;;;5.40;74.80;;;;;;5037281;28;20443;-72
2022/03/12 05:57:46;;;;;;;6.63;4.50;;;5.40;74.70;;;;;;5041899;28;20246;-68
2022/03/12 06:00:12;;;;;;;7.43;4.80;;;5.40;74.40;;;;;;5043991;28;20478;-69
2022/03/12 06:02:48;;;;;;;6.10;4.40;;;5.40;73.50;;;;;;5024145;28;20467;-69
2022/03/12 06:05:20;;;;;;;7.53;4.43;;;5.40;73.80;;;;;;5028968;28;20453;-69
2022/03/12 06:07:47;;;;;;;6.97;4.10;;;5.40;73.60;;;;;;5033940;28;20483;-69
2022/03/12 06:10:18;;;;;;;5.07;4.23;;;5.40;73.50;;;;;;5040420;28;20454;-69
2022/03/12 06:12:44;;;;;;;11.53;5.20;;;5.40;73.20;;;;;;5029087;28;20473;-70
2022/03/12 06:15:13;;;;;;;5.87;4.53;;;5.40;73.50;;;;;;5033360;28;20534;-68
2022/03/12 06:17:39;;;;;;;7.47;4.20;;;5.40;73.90;;;;;;5017250;28;20225;-70
2022/03/12 06:20:07;;;;;;;5.97;4.23;;;5.40;74.20;;;;;;5030577;28;20534;-68
2022/03/12 06:22:32;;;;;;;9.60;5.00;;;5.40;73.60;;;;;;5031787;28;20482;-69
2022/03/12 06:24:58;;;;;;;5.70;4.00;;;5.40;73.50;;;;;;5024460;28;20462;-69
2022/03/12 06:27:24;;;;;;;6.77;4.50;;;5.40;72.80;;;;;;5017333;28;20234;-68
2022/03/12 06:29:49;;;;;;;7.77;4.63;;;5.40;73.10;;;;;;5031584;28;20226;-68
2022/03/12 06:32:15;;;;;;;6.20;4.30;;;5.40;73.40;;;;;;5038234;28;20701;-69
2022/03/12 06:34:43;;;;;;;6.30;4.20;;;5.40;73.30;;;;;;5019586;28;20224;-71
2022/03/12 06:37:09;;;;;;;8.73;4.70;;;5.40;73.20;;;;;;5023736;28;20232;-68
2022/03/12 06:39:36;;;;;;;7.40;5.03;;;5.40;73.10;;;;;;5030433;28;20546;-70
2022/03/12 06:42:03;;;;;;;9.40;4.97;;;5.40;73.30;;;;;;5035192;28;20463;-69
2022/03/12 06:44:31;;;;;;;7.20;4.70;;;5.40;73.60;;;;;;5029772;28;20493;-70
2022/03/12 06:46:57;;;;;;;8.70;4.50;;;5.40;72.90;;;;;;5030481;28;20986;-65
2022/03/12 06:49:23;;;;;;;15.00;5.30;;;5.40;73.10;;;;;;5046840;28;20446;-70
2022/03/12 06:51:49;;;;;;;7.63;4.90;;;5.40;73.00;;;;;;5035366;28;20659;-67
2022/03/12 06:54:14;;;;;;;5.50;3.90;;;5.40;72.90;;;;;;5027574;28;20779;-70
2022/03/12 06:56:40;;;;;;;7.43;5.00;;;5.40;72.80;;;;;;5043043;28;20587;-69
2022/03/12 06:59:06;;;;;;;7.70;4.40;;;5.40;72.60;;;;;;5028259;28;20365;-71
2022/03/12 07:01:32;;;;;;;5.73;4.30;;;5.40;73.20;;;;;;5030293;28;20306;-69
2022/03/12 07:03:59;;;;;;;7.10;4.50;;;5.40;73.20;;;;;;5028470;28;20447;-69
2022/03/12 07:06:24;;;;;;;7.80;5.00;;;5.40;72.50;;;;;;5030228;28;20977;-70
2022/03/12 07:08:50;;;;;;;10.20;5.20;;;5.40;72.20;;;;;;5029381;28;20225;-72
2022/03/12 07:11:18;;;;;;;14.40;6.50;;;5.40;72.10;;;;;;5027548;28;20309;-69
2022/03/12 07:13:44;;;;;;;10.00;6.33;;;5.40;72.60;;;;;;5038624;28;20311;-68
2022/03/12 07:16:10;;;;;;;8.90;6.10;;;5.40;72.80;;;;;;5028959;28;20534;-68
2022/03/12 07:18:36;;;;;;;17.20;7.10;;;5.40;72.90;;;;;;5036209;28;20228;-68
2022/03/12 07:21:01;;;;;;;9.03;5.53;;;5.40;72.90;;;;;;5041122;28;20458;-69
2022/03/12 07:23:27;;;;;;;9.83;5.77;;;5.40;72.70;;;;;;5039557;28;20227;-68
2022/03/12 07:25:53;;;;;;;7.70;4.70;;;5.40;71.80;;;;;;5037823;28;20227;-69
2022/03/12 07:28:20;;;;;;;6.70;4.40;;;5.40;71.90;;;;;;5034423;28;20719;-70
2022/03/12 07:30:46;;;;;;;8.87;5.40;;;5.40;72.30;;;;;;5044584;28;20691;-69
2022/03/12 07:33:11;;;;;;;13.60;5.23;;;5.40;72.20;;;;;;5042375;28;20557;-71
2022/03/12 07:35:38;;;;;;;7.10;4.07;;;5.40;72.40;;;;;;5025643;28;20215;-69
2022/03/12 07:38:04;;;;;;;6.83;5.20;;;5.40;72.40;;;;;;5017542;28;20216;-72
2022/03/12 07:40:31;;;;;;;9.47;4.93;;;5.40;72.70;;;;;;5024258;28;21000;-68
2022/03/12 07:42:57;;;;;;;8.00;5.03;;;5.40;72.10;;;;;;5040260;28;20460;-69
2022/03/12 07:45:25;;;;;;;8.73;4.80;;;5.40;71.90;;;;;;5032861;28;20458;-72
2022/03/12 07:47:52;;;;;;;9.80;5.10;;;5.40;72.20;;;;;;5036492;28;20531;-69
2022/03/12 07:50:18;;;;;;;6.80;4.67;;;5.40;71.70;;;;;;5050242;28;20219;-74
2022/03/12 07:52:44;;;;;;;7.33;5.00;;;5.40;72.20;;;;;;5036354;28;20874;-69
2022/03/12 07:55:11;;;;;;;17.23;5.13;;;5.40;71.50;;;;;;5018749;28;20463;-69
2022/03/12 07:57:39;;;;;;;7.30;4.70;;;5.40;71.70;;;;;;5039405;28;20454;-71
2022/03/12 08:00:10;;;;;;;10.30;5.07;;;5.40;72.80;;;;;;5037133;28;20513;-69
2022/03/12 08:02:45;;;;;;;14.13;6.57;;;5.50;73.10;;;;;;5022323;28;20454;-69
2022/03/12 08:05:13;;;;;;;12.70;7.33;;;5.50;73.10;;;;;;5039732;28;20451;-69
2022/03/12 08:07:39;;;;;;;10.60;6.77;;;5.50;72.70;;;;;;5030947;28;20469;-69
2022/03/12 08:10:06;;;;;;;8.43;6.20;;;5.50;72.90;;;;;;5030926;28;20466;-69
2022/03/12 08:12:32;;;;;;;14.97;7.53;;;5.50;72.90;;;;;;5027806;28;20468;-68
2022/03/12 08:15:00;;;;;;;9.70;6.27;;;5.60;73.30;;;;;;5034783;28;20904;-67
2022/03/12 08:17:25;;;;;;;11.57;7.13;;;5.60;73.10;;;;;;5033434;28;20443;-69
2022/03/12 08:19:52;;;;;;;12.17;6.07;;;5.60;73.10;;;;;;5030574;28;20460;-70
2022/03/12 08:22:18;;;;;;;7.97;6.30;;;5.60;73.00;;;;;;5034031;28;20228;-69
2022/03/12 08:24:44;;;;;;;10.03;5.70;;;5.70;72.80;;;;;;5030681;28;20515;-68
2022/03/12 08:27:14;;;;;;;6.30;5.30;;;5.70;72.70;;;;;;5029994;28;20834;-69
2022/03/12 08:29:42;;;;;;;10.00;5.63;;;5.70;72.50;;;;;;5042415;28;20446;-69
2022/03/12 08:32:08;;;;;;;8.73;5.47;;;5.70;72.60;;;;;;5030755;28;20470;-70
2022/03/12 08:34:34;;;;;;;10.20;6.00;;;5.80;72.10;;;;;;5031114;28;20540;-69
2022/03/12 08:37:01;;;;;;;7.13;4.50;;;5.80;71.80;;;;;;5018367;28;20597;-69
2022/03/12 08:39:27;;;;;;;8.00;5.83;;;5.80;72.30;;;;;;5033812;28;20459;-68
2022/03/12 08:41:53;;;;;;;6.57;5.23;;;5.90;72.50;;;;;;5032113;28;20451;-70
2022/03/12 08:44:19;;;;;;;11.03;5.67;;;5.90;72.90;;;;;;5033975;28;20450;-70
2022/03/12 08:46:46;;;;;;;7.77;5.70;;;5.90;72.70;;;;;;5039327;28;20463;-70
2022/03/12 08:49:14;;;;;;;11.17;7.57;;;5.90;72.70;;;;;;5031400;28;20444;-68
2022/03/12 08:51:41;;;;;;;11.80;7.13;;;6.10;73.30;;;;;;5033174;28;20483;-73
2022/03/12 08:54:07;;;;;;;8.70;6.47;;;6.10;73.50;;;;;;5045332;28;20465;-67
2022/03/12 08:56:34;;;;;;;10.23;5.93;;;6.20;73.60;;;;;;5049166;28;20451;-68
2022/03/12 08:59:00;;;;;;;8.50;6.10;;;6.20;73.60;;;;;;5029794;28;20448;-69
2022/03/12 09:01:26;;;;;;;11.13;5.60;;;6.30;73.50;;;;;;5032562;28;20466;-69
2022/03/12 09:03:52;;;;;;;9.57;5.40;;;6.30;74.40;;;;;;5022877;28;20592;-70
2022/03/12 09:06:18;;;;;;;7.67;4.27;;;6.30;74.10;;;;;;5032378;28;20220;-71
2022/03/12 09:08:46;;;;;;;5.73;5.00;;;6.40;73.70;;;;;;5015106;28;20774;-70
2022/03/12 09:11:16;;;;;;;10.87;5.53;;;6.40;73.90;;;;;;5028898;28;20459;-68
2022/03/12 09:13:42;;;;;;;8.43;5.10;;;6.40;74.30;;;;;;5029901;28;20502;-68
2022/03/12 09:16:07;;;;;;;6.80;5.67;;;6.50;74.20;;;;;;5046736;28;20522;-69
2022/03/12 09:18:33;;;;;;;8.33;5.53;;;6.50;73.50;;;;;;5029867;28;20638;-69
2022/03/12 09:20:59;;;;;;;8.30;4.83;;;6.60;74.70;;;;;;5031422;28;20223;-69
2022/03/12 09:23:24;;;;;;;6.60;4.97;;;6.70;73.80;;;;;;5012232;28;20574;-71
2022/03/12 09:25:51;;;;;;;7.57;5.00;;;6.70;73.80;;;;;;5035547;28;20228;-68
2022/03/12 09:28:19;;;;;;;10.60;5.47;;;6.80;74.40;;;;;;5035428;28;20663;-70
2022/03/12 09:30:51;;;;;;;8.10;5.50;;;6.90;75.10;;;;;;5017566;28;20460;-68
2022/03/12 09:33:20;;;;;;;9.50;6.20;;;7.00;75.00;;;;;;5045161;28;20451;-69
2022/03/12 09:35:45;;;;;;;9.00;5.93;;;7.10;75.10;;;;;;5047014;28;20490;-69
2022/03/12 09:38:11;;;;;;;10.50;6.37;;;7.20;74.70;;;;;;5035975;28;20498;-68
2022/03/12 09:40:37;;;;;;;10.90;5.80;;;7.20;74.10;;;;;;5029767;28;20228;-69
2022/03/12 09:43:03;;;;;;;7.80;5.90;;;7.30;74.90;;;;;;5028367;28;20311;-68
2022/03/12 09:45:29;;;;;;;8.00;5.37;;;7.40;73.80;;;;;;5026376;28;20223;-70
2022/03/12 09:47:55;;;;;;;8.60;5.70;;;7.40;74.10;;;;;;5039398;28;20310;-68
2022/03/12 09:50:21;;;;;;;8.37;5.37;;;7.40;74.20;;;;;;5039451;28;20225;-70
2022/03/12 09:52:47;;;;;;;8.47;4.87;;;7.50;74.70;;;;;;5040083;28;20487;-69
2022/03/12 09:55:15;;;;;;;13.10;5.27;;;7.50;74.80;;;;;;5040320;28;20513;-69
2022/03/12 09:57:41;;;;;;;10.60;5.60;;;7.60;74.20;;;;;;5041819;28;20543;-69
2022/03/12 10:00:08;;;;;;;10.77;5.70;;;7.70;74.10;;;;;;5040038;28;20452;-70
2022/03/12 10:02:40;;;;;;;10.00;6.03;;;7.70;72.80;;;;;;5037093;28;20590;-69
2022/03/12 10:05:06;;;;;;;9.30;5.57;;;7.70;73.50;;;;;;5019529;28;21021;-68
2022/03/12 10:07:32;;;;;;;7.00;5.57;;;7.80;74.40;;;;;;5038721;28;21089;-69
2022/03/12 10:09:58;;;;;;;10.10;5.90;;;7.90;73.80;;;;;;5042323;28;20450;-69
2022/03/12 10:12:23;;;;;;;9.60;5.47;;;8.00;74.20;;;;;;5042903;28;20310;-69
2022/03/12 10:14:49;;;;;;;11.60;5.50;;;8.10;74.80;;;;;;5034346;28;20318;-70
2022/03/12 10:17:17;;;;;;;8.67;6.07;;;8.20;74.90;;;;;;5012303;28;20221;-69
2022/03/12 10:19:45;;;;;;;9.97;6.10;;;8.20;74.20;;;;;;5033131;28;20224;-71
2022/03/12 10:22:10;;;;;;;9.37;6.03;;;8.30;74.10;;;;;;5049975;28;20989;-70
2022/03/12 10:24:36;;;;;;;10.70;5.63;;;8.40;74.40;;;;;;5030468;28;20503;-69
2022/03/12 10:27:06;;;;;;;10.77;6.70;;;8.50;74.60;;;;;;5030621;28;20213;-69
2022/03/12 10:29:31;;;;;;;10.87;5.77;;;8.60;75.00;;;;;;5044404;28;20229;-68
2022/03/12 10:31:57;;;;;;;10.33;6.00;;;8.70;74.80;;;;;;5031178;28;20464;-70
2022/03/12 10:34:25;;;;;;;8.40;5.90;;;8.80;75.00;;;;;;5025678;28;20295;-69
2022/03/12 10:36:57;;;;;;;10.07;7.03;;;8.90;74.60;;;;;;5028750;28;20266;-69
2022/03/12 10:39:35;;;;;;;9.17;6.67;;;8.90;74.70;;;;;;5041118;28;20455;-69
2022/03/12 10:42:04;;;;;;;12.93;7.83;;;9.00;75.20;;;;;;5023546;28;20506;-69
2022/03/12 10:44:37;;;;;;;12.43;8.50;;;9.20;75.40;;;;;;5023195;28;20951;-68
2022/03/12 10:47:22;;;;;;;14.70;8.63;;;9.40;76.10;;;;;;5029515;28;20463;-73
2022/03/12 10:49:58;;;;;;;14.20;8.63;;;9.50;76.00;;;;;;5030536;28;20462;-69
2022/03/12 10:52:29;;;;;;;11.83;7.33;;;9.60;74.60;;;;;;5029757;28;20451;-69
2022/03/12 10:54:55;;;;;;;14.57;8.70;;;9.60;75.50;;;;;;5026827;28;20455;-68
2022/03/12 10:57:21;;;;;;;11.03;8.03;;;9.70;75.80;;;;;;5029732;28;20439;-69
2022/03/12 10:59:53;;;;;;;13.07;8.57;;;9.80;75.80;;;;;;5034251;28;20801;-69
2022/03/12 11:02:19;;;;;;;13.07;8.33;;;9.90;75.90;;;;;;5031448;28;20451;-71
2022/03/12 11:04:44;;;;;;;15.00;8.90;;;10.00;74.40;;;;;;5033697;28;20984;-70
2022/03/12 11:07:24;;;;;;;13.40;8.87;;;10.10;74.10;;;;;;5028713;28;20232;-69
2022/03/12 11:09:52;;;;;;;16.13;7.60;;;10.20;74.50;;;;;;5042434;28;20617;-69
2022/03/12 11:12:30;;;;;;;13.33;7.43;;;10.20;74.40;;;;;;5031832;28;20459;-71
2022/03/12 11:15:03;;;;;;;12.03;7.67;;;10.30;75.80;;;;;;5029130;28;20458;-70
2022/03/12 11:17:28;;;;;;;15.07;9.60;;;10.40;75.30;;;;;;5043500;28;20455;-70
2022/03/12 11:19:57;;;;;;;14.77;10.53;;;10.40;75.10;;;;;;5028003;28;20521;-69
2022/03/12 11:22:23;;;;;;;16.97;10.17;;;10.50;74.80;;;;;;5032699;28;20759;-71
2022/03/12 11:24:54;;;;;;;14.27;9.60;;;10.60;75.00;;;;;;5043152;28;20463;-71
2022/03/12 11:27:34;;;;;;;15.83;8.60;;;10.70;75.30;;;;;;5035791;28;20459;-75
2022/03/12 11:30:09;;;;;;;21.83;10.73;;;10.80;76.00;;;;;;5026223;28;20456;-71
2022/03/12 11:32:46;;;;;;;18.47;10.87;;;10.90;75.80;;;;;;5033232;28;20462;-71
2022/03/12 11:35:17;;;;;;;18.93;10.80;;;11.00;75.70;;;;;;5041696;28;20833;-68
2022/03/12 11:37:43;;;;;;;27.53;11.83;;;11.00;75.80;;;;;;5039405;28;20467;-69
2022/03/12 11:40:16;;;;;;;19.17;12.20;;;11.00;75.00;;;;;;5048437;28;20535;-69
2022/03/12 11:42:42;;;;;;;15.10;9.87;;;11.00;74.50;;;;;;5035371;28;20579;-70
2022/03/12 11:45:17;;;;;;;15.27;10.20;;;11.10;75.20;;;;;;5034732;28;20965;-68
2022/03/12 11:47:45;;;;;;;19.50;9.50;;;11.40;75.00;;;;;;5022644;28;20462;-68
2022/03/12 11:50:19;;;;;;;13.70;8.33;;;11.60;75.30;;;;;;5029874;28;20456;-69
2022/03/12 11:52:46;;;;;;;11.13;7.47;;;11.70;75.90;;;;;;5047785;28;20468;-69
2022/03/12 11:55:22;;;;;;;13.27;8.53;;;11.70;75.00;;;;;;5030403;28;21064;-69
2022/03/12 11:57:50;;;;;;;13.63;7.63;;;11.70;75.50;;;;;;5031832;28;20470;-73
2022/03/12 12:00:20;;;;;;;12.20;8.50;;;11.60;74.00;;;;;;5034670;28;20482;-69
2022/03/12 12:02:46;;;;;;;16.80;8.90;;;11.80;75.70;;;;;;5034998;28;20460;-70
2022/03/12 12:05:12;;;;;;;15.70;9.10;;;11.90;75.90;;;;;;5038960;28;20454;-74
2022/03/12 12:07:41;;;;;;;16.07;9.67;;;11.90;75.70;;;;;;5050276;28;20874;-70
2022/03/12 12:10:09;;;;;;;14.57;10.30;;;12.00;76.30;;;;;;5020536;28;20463;-69
2022/03/12 12:12:36;;;;;;;11.93;8.00;;;12.20;76.00;;;;;;5032363;28;20456;-68
2022/03/12 12:15:07;;;;;;;13.40;9.47;;;12.40;76.30;;;;;;5033364;28;20550;-69
2022/03/12 12:17:33;;;;;;;15.77;8.40;;;12.40;76.60;;;;;;5042530;28;20459;-70
2022/03/12 12:20:03;;;;;;;15.37;8.40;;;12.40;75.90;;;;;;5046673;28;20962;-69
2022/03/12 12:22:29;;;;;;;13.10;9.53;;;12.50;76.30;;;;;;5047754;28;20511;-69
2022/03/12 12:24:56;;;;;;;10.93;8.30;;;12.60;75.90;;;;;;5027948;28;20456;-69
2022/03/12 12:27:23;;;;;;;18.80;9.23;;;12.60;76.70;;;;;;5021257;28;20225;-69
2022/03/12 12:29:54;;;;;;;14.03;10.30;;;12.70;77.00;;;;;;5032671;28;20455;-70
2022/03/12 12:32:21;;;;;;;11.67;9.07;;;12.80;77.60;;;;;;5029970;28;20460;-69
2022/03/12 12:35:11;;;;;;;15.23;8.50;;;12.90;76.70;;;;;;5031241;28;20534;-71
2022/03/12 12:37:41;;;;;;;13.53;9.10;;;13.00;76.80;;;;;;5032465;28;20455;-70
2022/03/12 12:40:27;;;;;;;10.27;7.80;;;12.80;75.10;;;;;;5033336;28;20479;-70
2022/03/12 12:42:56;;;;;;;10.40;8.20;;;12.70;75.30;;;;;;5044864;28;20459;-66
2022/03/12 12:45:25;;;;;;;10.80;7.70;;;12.80;75.50;;;;;;5037866;28;20987;-70
2022/03/12 12:48:07;;;;;;;16.70;8.37;;;12.90;76.90;;;;;;5046859;28;20561;-70
2022/03/12 12:50:33;;;;;;;16.27;8.27;;;13.00;76.60;;;;;;5041509;28;20977;-69
2022/03/12 12:53:16;;;;;;;14.60;8.30;;;13.00;77.10;;;;;;5034634;28;20476;-70
2022/03/12 12:55:43;;;;;;;14.53;9.03;;;13.10;77.50;;;;;;5030911;28;20470;-69